sensor_id;sensor_type;location;lat;lon;timestamp;temperature;humidity
9265;DHT22;4669;49.594;10.958;2024-03-07T05:26:33;4.60;99.90
9265;DHT22;4669;49.594;10.958;2024-03-07T05:31:38;4.50;99.90
9265;DHT22;4669;49.594;10.958;2024-03-07T05:36:49;4.60;99.90
9265;DHT22;4669;49.594;10.958;2024-03-07T05:41:52;4.60;99.90
9265;DHT22;4669;49.594;10.958;2024-03-07T05:46:56;4.60;99.90
9265;DHT22;4669;49.594;10.958;2024-03-07T05:51:58;4.60;99.90
9265;DHT22;4669;49.594;10.958;2024-03-07T05:57:01;4.60;99.90
9265;DHT22;4669;49.594;10.958;2024-03-07T06:02:03;4.60;99.90
9265;DHT22;4669;49.594;10.958;2024-03-07T06:07:05;4.60;99.90
9265;DHT22;4669;49.594;10.958;2024-03-07T06:12:09;4.50;99.90
9265;DHT22;4669;49.594;10.958;2024-03-07T06:17:11;4.50;99.90
9265;DHT22;4669;49.594;10.958;2024-03-07T06:22:13;4.50;99.90
9265;DHT22;4669;49.594;10.958;2024-03-07T06:27:16;4.50;99.90
9265;DHT22;4669;49.594;10.958;2024-03-07T06:32:27;4.50;99.90
9265;DHT22;4669;49.594;10.958;2024-03-07T06:37:29;4.50;99.90
9265;DHT22;4669;49.594;10.958;2024-03-07T06:42:32;4.50;99.90
9265;DHT22;4669;49.594;10.958;2024-03-07T06:47:34;4.60;99.90
9265;DHT22;4669;49.594;10.958;2024-03-07T06:52:37;4.70;99.90
9265;DHT22;4669;49.594;10.958;2024-03-07T06:57:40;4.80;99.90
9265;DHT22;4669;49.594;10.958;2024-03-07T07:02:43;4.80;99.90
9265;DHT22;4669;49.594;10.958;2024-03-07T07:07:46;4.70;99.90
9265;DHT22;4669;49.594;10.958;2024-03-07T07:12:50;4.70;99.90
9265;DHT22;4669;49.594;10.958;2024-03-07T07:17:52;4.70;99.90
9265;DHT22;4669;49.594;10.958;2024-03-07T07:22:54;4.60;99.90
9265;DHT22;4669;49.594;10.958;2024-03-07T07:28:00;4.60;99.90
9265;DHT22;4669;49.594;10.958;2024-03-07T07:33:05;4.60;99.90
9265;DHT22;4669;49.594;10.958;2024-03-07T07:38:07;4.70;99.90
9265;DHT22;4669;49.594;10.958;2024-03-07T07:43:13;4.70;99.90
9265;DHT22;4669;49.594;10.958;2024-03-07T07:48:15;4.70;99.90
9265;DHT22;4669;49.594;10.958;2024-03-07T07:53:17;4.70;99.90
9265;DHT22;4669;49.594;10.958;2024-03-07T07:58:21;4.70;99.90
9265;DHT22;4669;49.594;10.958;2024-03-07T08:03:23;4.80;99.90
9265;DHT22;4669;49.594;10.958;2024-03-07T08:08:25;4.80;99.90
9265;DHT22;4669;49.594;10.958;2024-03-07T08:13:28;4.80;99.90
9265;DHT22;4669;49.594;10.958;2024-03-07T08:18:30;4.90;99.90
9265;DHT22;4669;49.594;10.958;2024-03-07T08:23:32;5.00;99.90
9265;DHT22;4669;49.594;10.958;2024-03-07T08:28:36;5.10;99.90
9265;DHT22;4669;49.594;10.958;2024-03-07T08:33:38;5.30;99.90
9265;DHT22;4669;49.594;10.958;2024-03-07T08:38:40;5.50;99.90
9265;DHT22;4669;49.594;10.958;2024-03-07T08:43:45;5.70;99.90
9265;DHT22;4669;49.594;10.958;2024-03-07T08:48:47;5.80;99.90
9265;DHT22;4669;49.594;10.958;2024-03-07T08:53:50;5.90;99.90
9265;DHT22;4669;49.594;10.958;2024-03-07T08:58:53;6.00;99.90
9265;DHT22;4669;49.594;10.958;2024-03-07T09:03:55;6.10;99.90
9265;DHT22;4669;49.594;10.958;2024-03-07T09:08:59;6.20;99.90
9265;DHT22;4669;49.594;10.958;2024-03-07T09:14:03;6.30;99.90
9265;DHT22;4669;49.594;10.958;2024-03-07T09:19:10;6.40;99.90
9265;DHT22;4669;49.594;10.958;2024-03-07T09:24:14;6.40;99.90
9265;DHT22;4669;49.594;10.958;2024-03-07T09:29:18;6.60;99.90
9265;DHT22;4669;49.594;10.958;2024-03-07T09:34:21;6.70;99.90
9265;DHT22;4669;49.594;10.958;2024-03-07T09:39:23;6.80;99.90
9265;DHT22;4669;49.594;10.958;2024-03-07T09:44:28;6.90;99.90
9265;DHT22;4669;49.594;10.958;2024-03-07T09:49:33;6.80;99.90
9265;DHT22;4669;49.594;10.958;2024-03-07T09:54:36;6.90;99.90
9265;DHT22;4669;49.594;10.958;2024-03-07T09:59:42;6.90;99.90
9265;DHT22;4669;49.594;10.958;2024-03-07T10:04:48;7.00;99.90
9265;DHT22;4669;49.594;10.958;2024-03-07T10:09:50;7.00;99.90
9265;DHT22;4669;49.594;10.958;2024-03-07T10:15:03;7.10;99.90
9265;DHT22;4669;49.594;10.958;2024-03-07T10:20:07;7.10;99.90
9265;DHT22;4669;49.594;10.958;2024-03-07T10:25:17;7.10;99.90
9265;DHT22;4669;49.594;10.958;2024-03-07T10:30:21;7.10;99.90
9265;DHT22;4669;49.594;10.958;2024-03-07T10:35:24;7.10;99.90
9265;DHT22;4669;49.594;10.958;2024-03-07T10:40:26;7.10;99.90
9265;DHT22;4669;49.594;10.958;2024-03-07T10:45:29;7.20;99.90
9265;DHT22;4669;49.594;10.958;2024-03-07T10:50:41;7.30;99.90
9265;DHT22;4669;49.594;10.958;2024-03-07T10:55:53;7.40;99.90
9265;DHT22;4669;49.594;10.958;2024-03-07T11:01:01;7.40;99.90
9265;DHT22;4669;49.594;10.958;2024-03-07T11:06:06;7.40;99.90
9265;DHT22;4669;49.594;10.958;2024-03-07T11:11:13;7.40;99.90
9265;DHT22;4669;49.594;10.958;2024-03-07T11:16:17;7.40;99.90
9265;DHT22;4669;49.594;10.958;2024-03-07T11:21:41;7.30;99.90
9265;DHT22;4669;49.594;10.958;2024-03-07T11:26:47;7.30;99.90
9265;DHT22;4669;49.594;10.958;2024-03-07T11:31:53;7.30;99.90
9265;DHT22;4669;49.594;10.958;2024-03-07T11:36:55;7.40;99.90
9265;DHT22;4669;49.594;10.958;2024-03-07T11:42:00;7.50;99.90
9265;DHT22;4669;49.594;10.958;2024-03-07T11:47:05;7.60;99.90
9265;DHT22;4669;49.594;10.958;2024-03-07T11:52:10;7.70;99.90
9265;DHT22;4669;49.594;10.958;2024-03-07T11:57:15;7.80;99.90
9265;DHT22;4669;49.594;10.958;2024-03-07T12:02:21;7.90;99.90
9265;DHT22;4669;49.594;10.958;2024-03-07T12:07:23;8.00;99.90
9265;DHT22;4669;49.594;10.958;2024-03-07T12:12:27;8.10;99.40
9265;DHT22;4669;49.594;10.958;2024-03-07T12:17:31;8.20;98.40
9265;DHT22;4669;49.594;10.958;2024-03-07T12:22:36;8.30;98.40
9265;DHT22;4669;49.594;10.958;2024-03-07T12:27:38;8.20;98.50
9265;DHT22;4669;49.594;10.958;2024-03-07T12:32:47;8.20;98.60
9265;DHT22;4669;49.594;10.958;2024-03-07T12:37:49;8.30;98.50
9265;DHT22;4669;49.594;10.958;2024-03-07T12:42:52;8.30;98.30
9265;DHT22;4669;49.594;10.958;2024-03-07T12:47:56;8.40;98.40
9265;DHT22;4669;49.594;10.958;2024-03-07T12:53:05;8.40;98.00
9265;DHT22;4669;49.594;10.958;2024-03-07T12:58:12;8.30;98.00
9265;DHT22;4669;49.594;10.958;2024-03-07T13:03:17;8.30;97.90
9265;DHT22;4669;49.594;10.958;2024-03-07T13:08:19;8.30;98.30
9265;DHT22;4669;49.594;10.958;2024-03-07T13:13:26;8.30;98.20
9265;DHT22;4669;49.594;10.958;2024-03-07T13:18:30;8.40;98.20
9265;DHT22;4669;49.594;10.958;2024-03-07T13:23:34;8.50;98.30
9265;DHT22;4669;49.594;10.958;2024-03-07T13:28:37;8.50;98.20
9265;DHT22;4669;49.594;10.958;2024-03-07T13:33:41;8.40;97.90
9265;DHT22;4669;49.594;10.958;2024-03-07T13:38:43;8.50;97.70
9265;DHT22;4669;49.594;10.958;2024-03-07T13:43:47;8.40;97.70
9265;DHT22;4669;49.594;10.958;2024-03-07T13:48:53;8.30;98.50
9265;DHT22;4669;49.594;10.958;2024-03-07T13:54:05;8.30;98.40
9265;DHT22;4669;49.594;10.958;2024-03-07T13:59:51;8.40;98.20
9265;DHT22;4669;49.594;10.958;2024-03-07T14:05:34;8.30;98.30
9265;DHT22;4669;49.594;10.958;2024-03-07T14:11:06;8.20;98.60
9265;DHT22;4669;49.594;10.958;2024-03-07T14:16:43;8.10;98.80
9265;DHT22;4669;49.594;10.958;2024-03-07T14:22:07;8.10;99.10
9265;DHT22;4669;49.594;10.958;2024-03-07T14:27:31;8.00;98.90
9265;DHT22;4669;49.594;10.958;2024-03-07T14:32:37;8.00;98.80
9265;DHT22;4669;49.594;10.958;2024-03-07T14:37:49;7.90;98.80
9265;DHT22;4669;49.594;10.958;2024-03-07T14:42:55;7.90;98.80
9265;DHT22;4669;49.594;10.958;2024-03-07T14:47:59;7.90;98.90
9265;DHT22;4669;49.594;10.958;2024-03-07T14:53:03;7.90;98.70
9265;DHT22;4669;49.594;10.958;2024-03-07T14:58:06;7.90;99.00
9265;DHT22;4669;49.594;10.958;2024-03-07T15:03:13;7.80;99.10
9265;DHT22;4669;49.594;10.958;2024-03-07T15:08:20;7.70;99.00
9265;DHT22;4669;49.594;10.958;2024-03-07T15:13:24;7.70;98.60
9265;DHT22;4669;49.594;10.958;2024-03-07T15:18:26;7.70;98.90
9265;DHT22;4669;49.594;10.958;2024-03-07T15:23:31;7.70;98.30
9265;DHT22;4669;49.594;10.958;2024-03-07T15:28:33;7.80;98.30
9265;DHT22;4669;49.594;10.958;2024-03-07T15:33:36;7.80;98.20
9265;DHT22;4669;49.594;10.958;2024-03-07T15:38:40;7.70;98.40
9265;DHT22;4669;49.594;10.958;2024-03-07T15:43:42;7.70;98.40
9265;DHT22;4669;49.594;10.958;2024-03-07T15:48:45;7.60;99.00
9265;DHT22;4669;49.594;10.958;2024-03-07T15:53:50;7.70;99.00
9265;DHT22;4669;49.594;10.958;2024-03-07T15:58:52;7.70;99.00
9265;DHT22;4669;49.594;10.958;2024-03-07T16:03:54;7.70;99.00
9265;DHT22;4669;49.594;10.958;2024-03-07T16:08:58;7.80;98.60
9265;DHT22;4669;49.594;10.958;2024-03-07T16:14:00;7.70;98.50
9265;DHT22;4669;49.594;10.958;2024-03-07T16:19:02;7.70;98.60
9265;DHT22;4669;49.594;10.958;2024-03-07T16:24:07;7.60;98.70
9265;DHT22;4669;49.594;10.958;2024-03-07T16:29:11;7.50;98.90
9265;DHT22;4669;49.594;10.958;2024-03-07T16:34:13;7.50;98.70
9265;DHT22;4669;49.594;10.958;2024-03-07T16:39:17;7.40;98.30
9265;DHT22;4669;49.594;10.958;2024-03-07T16:44:19;7.60;97.90
9265;DHT22;4669;49.594;10.958;2024-03-07T16:49:23;7.40;98.40
9265;DHT22;4669;49.594;10.958;2024-03-07T16:54:28;7.30;98.30
9265;DHT22;4669;49.594;10.958;2024-03-07T16:59:30;7.30;98.10
9265;DHT22;4669;49.594;10.958;2024-03-07T17:04:35;7.20;98.00
9265;DHT22;4669;49.594;10.958;2024-03-07T17:09:38;7.20;97.90
9265;DHT22;4669;49.594;10.958;2024-03-07T17:14:42;7.20;97.90
9265;DHT22;4669;49.594;10.958;2024-03-07T17:19:44;7.10;98.10
9265;DHT22;4669;49.594;10.958;2024-03-07T17:24:49;7.00;98.30
9265;DHT22;4669;49.594;10.958;2024-03-07T17:29:53;6.90;98.60
9265;DHT22;4669;49.594;10.958;2024-03-07T17:34:55;6.90;98.40
9265;DHT22;4669;49.594;10.958;2024-03-07T17:39:59;6.90;98.30
9265;DHT22;4669;49.594;10.958;2024-03-07T17:45:01;6.80;98.40
9265;DHT22;4669;49.594;10.958;2024-03-07T17:50:11;6.80;98.80
9265;DHT22;4669;49.594;10.958;2024-03-07T17:55:21;6.70;98.80
9265;DHT22;4669;49.594;10.958;2024-03-07T18:00:24;6.70;99.20
9265;DHT22;4669;49.594;10.958;2024-03-07T18:05:28;6.70;98.40
9265;DHT22;4669;49.594;10.958;2024-03-07T18:10:32;6.70;98.70
9265;DHT22;4669;49.594;10.958;2024-03-07T18:15:36;6.60;98.60
9265;DHT22;4669;49.594;10.958;2024-03-07T18:20:40;6.60;98.00
9265;DHT22;4669;49.594;10.958;2024-03-07T18:25:44;6.50;98.10
9265;DHT22;4669;49.594;10.958;2024-03-07T18:30:46;6.50;98.00
9265;DHT22;4669;49.594;10.958;2024-03-07T18:35:49;6.50;97.90
9265;DHT22;4669;49.594;10.958;2024-03-07T18:40:53;6.50;97.60
9265;DHT22;4669;49.594;10.958;2024-03-07T18:45:55;6.50;97.30
9265;DHT22;4669;49.594;10.958;2024-03-07T18:50:57;6.40;97.60
9265;DHT22;4669;49.594;10.958;2024-03-07T18:56:02;6.30;97.50
9265;DHT22;4669;49.594;10.958;2024-03-07T19:01:10;6.20;97.70
9265;DHT22;4669;49.594;10.958;2024-03-07T19:06:12;6.20;97.80
9265;DHT22;4669;49.594;10.958;2024-03-07T19:11:19;6.10;98.20
9265;DHT22;4669;49.594;10.958;2024-03-07T19:16:21;6.10;98.00
9265;DHT22;4669;49.594;10.958;2024-03-07T19:21:23;6.10;98.20
9265;DHT22;4669;49.594;10.958;2024-03-07T19:26:27;6.00;98.30
9265;DHT22;4669;49.594;10.958;2024-03-07T19:31:29;5.90;98.30
9265;DHT22;4669;49.594;10.958;2024-03-07T19:36:35;5.80;98.80
9265;DHT22;4669;49.594;10.958;2024-03-07T19:41:41;5.80;98.80
9265;DHT22;4669;49.594;10.958;2024-03-07T19:46:44;5.70;98.50
9265;DHT22;4669;49.594;10.958;2024-03-07T19:51:48;5.60;98.30
9265;DHT22;4669;49.594;10.958;2024-03-07T19:56:53;5.60;98.30
9265;DHT22;4669;49.594;10.958;2024-03-07T20:01:56;5.50;98.30
9265;DHT22;4669;49.594;10.958;2024-03-07T20:06:58;5.60;98.20
9265;DHT22;4669;49.594;10.958;2024-03-07T20:12:02;5.50;98.60
9265;DHT22;4669;49.594;10.958;2024-03-07T20:17:07;5.40;98.40
9265;DHT22;4669;49.594;10.958;2024-03-07T20:22:13;5.40;98.60
9265;DHT22;4669;49.594;10.958;2024-03-07T20:27:18;5.30;98.80
9265;DHT22;4669;49.594;10.958;2024-03-07T20:32:20;5.30;98.70
9265;DHT22;4669;49.594;10.958;2024-03-07T20:37:22;5.20;99.10
9265;DHT22;4669;49.594;10.958;2024-03-07T20:42:26;5.20;99.10
9265;DHT22;4669;49.594;10.958;2024-03-07T20:47:28;5.20;99.00
9265;DHT22;4669;49.594;10.958;2024-03-07T20:52:31;5.10;99.30
9265;DHT22;4669;49.594;10.958;2024-03-07T20:57:35;5.10;99.20
9265;DHT22;4669;49.594;10.958;2024-03-07T21:02:37;5.10;99.60
9265;DHT22;4669;49.594;10.958;2024-03-07T21:07:39;5.00;99.80
9265;DHT22;4669;49.594;10.958;2024-03-07T21:12:43;5.00;99.60
9265;DHT22;4669;49.594;10.958;2024-03-07T21:17:45;5.00;99.60
9265;DHT22;4669;49.594;10.958;2024-03-07T21:22:48;4.90;99.60
9265;DHT22;4669;49.594;10.958;2024-03-07T21:27:53;4.90;99.80
9265;DHT22;4669;49.594;10.958;2024-03-07T21:32:55;4.90;99.90
9265;DHT22;4669;49.594;10.958;2024-03-07T21:37:59;4.90;99.90
9265;DHT22;4669;49.594;10.958;2024-03-07T21:43:04;4.80;99.90
9265;DHT22;4669;49.594;10.958;2024-03-07T21:48:07;4.80;99.90
9265;DHT22;4669;49.594;10.958;2024-03-07T21:53:09;4.80;99.90
9265;DHT22;4669;49.594;10.958;2024-03-07T21:58:14;4.80;99.90
9265;DHT22;4669;49.594;10.958;2024-03-07T22:03:17;4.80;99.90
9265;DHT22;4669;49.594;10.958;2024-03-07T22:08:19;4.90;99.90
9265;DHT22;4669;49.594;10.958;2024-03-07T22:13:24;4.90;99.90
9265;DHT22;4669;49.594;10.958;2024-03-07T22:18:26;4.90;99.90
9265;DHT22;4669;49.594;10.958;2024-03-07T22:23:28;4.80;99.90
9265;DHT22;4669;49.594;10.958;2024-03-07T22:28:35;4.80;99.90
9265;DHT22;4669;49.594;10.958;2024-03-07T22:33:37;4.70;99.90
9265;DHT22;4669;49.594;10.958;2024-03-07T22:38:39;4.70;99.90
9265;DHT22;4669;49.594;10.958;2024-03-07T22:43:44;4.60;99.90
9265;DHT22;4669;49.594;10.958;2024-03-07T22:48:46;4.60;99.90
9265;DHT22;4669;49.594;10.958;2024-03-07T22:53:48;4.60;99.90
9265;DHT22;4669;49.594;10.958;2024-03-07T22:58:52;4.50;99.90
